SCELSCTE

Guest
Details From SCEL - Arturo Merino Benitez Intl
To SCTE - El Tepual Intl
Flight Number -
Tags Generated
Created
Modified
Stats Distance 496 nm / 918 km
Max Altitude 0 ft / 0 m
Waypoints 3
Social Downloads 5
Likes 0
Share VATSIM

Download

Looking for another format? Having issues loading an existing format? Contact us
Advertisement - Login to hide

Notes

Generated

Route

SCEL RW17 SCTE

ID Type Via Altitude Latitude Longitude Leg Dist Tot Dist Heading (true) Name
O SCEL APT - 0 ft / 0 m -33.37608˚ -70.78671˚ - 0 nm - -
RW17 FIX - 0 ft / 0 m -41.42694˚ -73.09353˚ 495 nm 495 nm 192° / 194° -
O SCTE APT - 0 ft / 0 m -41.42697˚ -73.09353˚ 0 nm 495 nm 179° / 179° -

Altitude Profile

Advertisement - Login to hide

Weather


0- 5 10 15 20 25 30 35+ Temperature / ° C

Clouds and Precipitation
Forecast for 2017-12-19 00:00 UTC. Updated an hour ago

Ground ~20,000 ft ~40,000 ft Winds

SCEL

Details ICAO SCEL (SCL)
Name Arturo Merino Benitez Intl
Region Chile
Timezone America/Santiago (UTC-3.0)
Stats Elevation 1,550 ft / 472 m (AMSL)
Location -33.389775° -70.794366°
Runways 2
Magnetic Variation 1.800° E

METAR

SCEL 182000Z 22012KT 180V240 9999 SCT180 OVC200 26/09 Q1014 NOSIG

Decode

TAF

TAF SCEL 181620Z 1818/1918 21015KT CAVOK TX29/1819Z TN14/1910Z BECMG 1822/1824 22010KT BECMG 1901/1903 15004KT 8000 NSC TEMPO 1908/1912 5000 HZ BECMG 1916/1918 19010KT

Decode

Departure Runways

ID Width Length Bearing (true) Bearing (mag) Surface Threshold Offset Overrun Length
17L 180 ft / 55 m 10,523 ft / 3,207 m 177.43° 175.63° Asphalt 0 ft / 0 m 0 ft / 0 m
17R 148 ft / 45 m 12,504 ft / 3,811 m 177.44° 175.64° Asphalt 0 ft / 0 m 0 ft / 0 m
35L 148 ft / 45 m 12,504 ft / 3,811 m 357.44° 355.64° Asphalt 0 ft / 0 m 0 ft / 0 m
35R 180 ft / 55 m 10,523 ft / 3,207 m 357.43° 355.63° Asphalt 1,800 ft / 549 m 0 ft / 0 m

SCTE

Details ICAO SCTE (PMC)
Name El Tepual
Region Chile
Timezone America/Santiago (UTC-3.0)
Stats Elevation 293 ft / 89 m (AMSL)
Location -41.438884° -73.093954°
Runways 1
Magnetic Variation 8.486° E

METAR

SCTE 182000Z 17013KT 140V220 CAVOK 18/07 Q1018 NOSIG

Decode

TAF

TAF TAF SCTE 181631Z 1818/1918 16011KT 9999 FEW025 TX17/1819Z TN05/1910Z BECMG 1820/1822 20008KT BECMG 1903/1905 VRBLVA1430 181736 FF KATLYTAA 181736 SPIMYFYX SVC LR VLA5520 EXP VLA5521

Decode

Destination Runways

ID Width Length Bearing (true) Bearing (mag) Surface Threshold Offset Overrun Length
17 148 ft / 45 m 8,702 ft / 2,652 m 172.00° 163.51° Concrete 0 ft / 0 m 0 ft / 0 m
35 148 ft / 45 m 8,702 ft / 2,652 m 352.00° 343.51° Concrete 0 ft / 0 m 0 ft / 0 m

Approach Navaids

Runway Type Ident Frequency Range Bearing (true) Bearing (mag) Slope Elevation
35 Localiser IMON 110.10 MHz 18 nm / 33 km 351.94° 343.46° - 293 ft / 89 m (AMSL)
35 Glidescope IMON 110.10 MHz 10 nm / 19 km 352.00° 343.51° 3.00° 293 ft / 89 m (AMSL)
35 DME IMON 115.70 MHz 18 nm / 33 km - - - 293 ft / 89 m (AMSL)

Popular Alternatives